sensor_id;sensor_type;location;lat;lon;timestamp;temperature;humidity
13806;DHT22;6974;53.606;9.872;2022-07-21T00:02:04;23.30;99.90
13806;DHT22;6974;53.606;9.872;2022-07-21T00:04:31;23.30;99.90
13806;DHT22;6974;53.606;9.872;2022-07-21T00:06:57;23.20;99.90
13806;DHT22;6974;53.606;9.872;2022-07-21T00:09:24;23.20;99.90
13806;DHT22;6974;53.606;9.872;2022-07-21T00:11:51;23.20;99.90
13806;DHT22;6974;53.606;9.872;2022-07-21T00:14:18;23.10;99.90
13806;DHT22;6974;53.606;9.872;2022-07-21T00:16:46;23.10;99.90
13806;DHT22;6974;53.606;9.872;2022-07-21T00:19:13;23.10;99.90
13806;DHT22;6974;53.606;9.872;2022-07-21T00:21:40;23.10;99.90
13806;DHT22;6974;53.606;9.872;2022-07-21T00:24:07;23.00;99.90
13806;DHT22;6974;53.606;9.872;2022-07-21T00:26:33;22.90;99.90
13806;DHT22;6974;53.606;9.872;2022-07-21T00:29:00;22.90;99.90
13806;DHT22;6974;53.606;9.872;2022-07-21T00:31:27;22.80;99.90
13806;DHT22;6974;53.606;9.872;2022-07-21T00:33:55;22.80;99.90
13806;DHT22;6974;53.606;9.872;2022-07-21T00:36:22;22.80;99.90
13806;DHT22;6974;53.606;9.872;2022-07-21T00:38:49;22.80;99.90
13806;DHT22;6974;53.606;9.872;2022-07-21T00:41:16;22.70;99.90
13806;DHT22;6974;53.606;9.872;2022-07-21T00:43:43;22.70;99.90
13806;DHT22;6974;53.606;9.872;2022-07-21T00:46:09;22.70;99.90
13806;DHT22;6974;53.606;9.872;2022-07-21T00:48:36;22.70;99.90
13806;DHT22;6974;53.606;9.872;2022-07-21T00:51:05;22.60;99.90
13806;DHT22;6974;53.606;9.872;2022-07-21T00:53:32;22.60;99.90
13806;DHT22;6974;53.606;9.872;2022-07-21T00:55:59;22.50;99.90
13806;DHT22;6974;53.606;9.872;2022-07-21T00:58:27;22.50;99.90
13806;DHT22;6974;53.606;9.872;2022-07-21T01:00:53;22.50;99.90
13806;DHT22;6974;53.606;9.872;2022-07-21T01:03:20;22.50;99.90
13806;DHT22;6974;53.606;9.872;2022-07-21T01:05:47;22.50;99.90
13806;DHT22;6974;53.606;9.872;2022-07-21T01:08:16;22.40;99.90
13806;DHT22;6974;53.606;9.872;2022-07-21T01:10:42;22.40;99.90
13806;DHT22;6974;53.606;9.872;2022-07-21T01:13:09;22.40;99.90
13806;DHT22;6974;53.606;9.872;2022-07-21T01:15:36;22.30;99.90
13806;DHT22;6974;53.606;9.872;2022-07-21T01:18:03;22.40;99.90
13806;DHT22;6974;53.606;9.872;2022-07-21T01:20:33;22.30;99.90
13806;DHT22;6974;53.606;9.872;2022-07-21T01:23:02;22.20;99.90
13806;DHT22;6974;53.606;9.872;2022-07-21T01:25:29;22.30;99.90
13806;DHT22;6974;53.606;9.872;2022-07-21T01:27:56;22.20;99.90
13806;DHT22;6974;53.606;9.872;2022-07-21T01:30:23;22.20;99.90
13806;DHT22;6974;53.606;9.872;2022-07-21T01:32:50;22.20;99.90
13806;DHT22;6974;53.606;9.872;2022-07-21T01:35:17;22.10;99.90
13806;DHT22;6974;53.606;9.872;2022-07-21T01:37:45;22.10;99.90
13806;DHT22;6974;53.606;9.872;2022-07-21T01:40:14;22.10;99.90
13806;DHT22;6974;53.606;9.872;2022-07-21T01:42:59;22.00;99.90
13806;DHT22;6974;53.606;9.872;2022-07-21T01:45:26;22.00;99.90
13806;DHT22;6974;53.606;9.872;2022-07-21T01:47:54;22.00;99.90
13806;DHT22;6974;53.606;9.872;2022-07-21T01:50:21;22.10;99.90
13806;DHT22;6974;53.606;9.872;2022-07-21T01:52:52;22.10;99.90
13806;DHT22;6974;53.606;9.872;2022-07-21T01:55:21;22.10;99.90
13806;DHT22;6974;53.606;9.872;2022-07-21T01:57:48;22.10;99.90
13806;DHT22;6974;53.606;9.872;2022-07-21T02:00:15;22.10;99.90
13806;DHT22;6974;53.606;9.872;2022-07-21T02:02:42;22.10;99.90
13806;DHT22;6974;53.606;9.872;2022-07-21T02:05:08;22.00;99.90
13806;DHT22;6974;53.606;9.872;2022-07-21T02:07:35;22.00;99.90
13806;DHT22;6974;53.606;9.872;2022-07-21T02:10:02;22.00;99.90
13806;DHT22;6974;53.606;9.872;2022-07-21T02:12:31;22.00;99.90
13806;DHT22;6974;53.606;9.872;2022-07-21T02:14:58;21.90;99.90
13806;DHT22;6974;53.606;9.872;2022-07-21T02:17:24;21.90;99.90
13806;DHT22;6974;53.606;9.872;2022-07-21T02:19:51;21.90;99.90
13806;DHT22;6974;53.606;9.872;2022-07-21T02:22:18;21.90;99.90
13806;DHT22;6974;53.606;9.872;2022-07-21T02:24:45;21.90;99.90
13806;DHT22;6974;53.606;9.872;2022-07-21T02:27:11;21.90;99.90
13806;DHT22;6974;53.606;9.872;2022-07-21T02:29:40;21.90;99.90
13806;DHT22;6974;53.606;9.872;2022-07-21T02:32:06;21.90;99.90
13806;DHT22;6974;53.606;9.872;2022-07-21T02:34:33;21.80;99.90
13806;DHT22;6974;53.606;9.872;2022-07-21T02:37:00;21.80;99.90
13806;DHT22;6974;53.606;9.872;2022-07-21T02:39:27;21.80;99.90
13806;DHT22;6974;53.606;9.872;2022-07-21T02:41:53;21.80;99.90
13806;DHT22;6974;53.606;9.872;2022-07-21T02:44:20;21.70;99.90
13806;DHT22;6974;53.606;9.872;2022-07-21T02:46:48;21.70;99.90
13806;DHT22;6974;53.606;9.872;2022-07-21T02:49:15;21.70;99.90
13806;DHT22;6974;53.606;9.872;2022-07-21T02:51:42;21.70;99.90
13806;DHT22;6974;53.606;9.872;2022-07-21T02:54:09;21.70;99.90
13806;DHT22;6974;53.606;9.872;2022-07-21T02:56:36;21.70;99.90
13806;DHT22;6974;53.606;9.872;2022-07-21T02:59:04;21.70;99.90
13806;DHT22;6974;53.606;9.872;2022-07-21T03:01:31;21.70;99.90
13806;DHT22;6974;53.606;9.872;2022-07-21T03:03:59;21.70;99.90
13806;DHT22;6974;53.606;9.872;2022-07-21T03:06:26;21.70;99.90
13806;DHT22;6974;53.606;9.872;2022-07-21T03:08:53;21.70;99.90
13806;DHT22;6974;53.606;9.872;2022-07-21T03:11:19;21.70;99.90
13806;DHT22;6974;53.606;9.872;2022-07-21T03:13:46;21.60;99.90
13806;DHT22;6974;53.606;9.872;2022-07-21T03:16:13;21.60;99.90
13806;DHT22;6974;53.606;9.872;2022-07-21T03:18:40;21.60;99.90
13806;DHT22;6974;53.606;9.872;2022-07-21T03:21:08;21.60;99.90
13806;DHT22;6974;53.606;9.872;2022-07-21T03:23:35;21.50;99.90
13806;DHT22;6974;53.606;9.872;2022-07-21T03:26:02;21.50;99.90
13806;DHT22;6974;53.606;9.872;2022-07-21T03:28:29;21.60;99.90
13806;DHT22;6974;53.606;9.872;2022-07-21T03:30:56;21.50;99.90
13806;DHT22;6974;53.606;9.872;2022-07-21T03:33:23;21.50;99.90
13806;DHT22;6974;53.606;9.872;2022-07-21T03:35:50;21.40;99.90
13806;DHT22;6974;53.606;9.872;2022-07-21T03:38:18;21.50;99.90
13806;DHT22;6974;53.606;9.872;2022-07-21T03:40:45;21.50;99.90
13806;DHT22;6974;53.606;9.872;2022-07-21T03:43:12;21.60;99.90
13806;DHT22;6974;53.606;9.872;2022-07-21T03:45:39;21.50;99.90
13806;DHT22;6974;53.606;9.872;2022-07-21T03:48:07;21.50;99.90
13806;DHT22;6974;53.606;9.872;2022-07-21T03:50:36;21.50;99.90
13806;DHT22;6974;53.606;9.872;2022-07-21T03:53:03;21.60;99.90
13806;DHT22;6974;53.606;9.872;2022-07-21T03:55:32;21.50;99.90
13806;DHT22;6974;53.606;9.872;2022-07-21T03:58:01;21.60;99.90
13806;DHT22;6974;53.606;9.872;2022-07-21T04:00:30;21.60;99.90
13806;DHT22;6974;53.606;9.872;2022-07-21T04:02:58;21.70;99.90
13806;DHT22;6974;53.606;9.872;2022-07-21T04:05:25;21.70;99.90
13806;DHT22;6974;53.606;9.872;2022-07-21T04:07:53;21.70;99.90
13806;DHT22;6974;53.606;9.872;2022-07-21T04:10:22;21.70;99.90
13806;DHT22;6974;53.606;9.872;2022-07-21T04:12:51;21.80;99.90
13806;DHT22;6974;53.606;9.872;2022-07-21T04:15:18;21.80;99.90
13806;DHT22;6974;53.606;9.872;2022-07-21T04:17:45;21.60;99.90
13806;DHT22;6974;53.606;9.872;2022-07-21T04:20:14;21.60;99.90
13806;DHT22;6974;53.606;9.872;2022-07-21T04:22:41;21.60;99.90
13806;DHT22;6974;53.606;9.872;2022-07-21T04:25:09;21.60;99.90
13806;DHT22;6974;53.606;9.872;2022-07-21T04:27:36;21.50;99.90
13806;DHT22;6974;53.606;9.872;2022-07-21T04:30:07;21.50;99.90
13806;DHT22;6974;53.606;9.872;2022-07-21T04:32:34;21.50;99.90
13806;DHT22;6974;53.606;9.872;2022-07-21T04:35:01;21.60;99.90
13806;DHT22;6974;53.606;9.872;2022-07-21T04:37:28;21.50;99.90
13806;DHT22;6974;53.606;9.872;2022-07-21T04:39:55;21.50;99.90
13806;DHT22;6974;53.606;9.872;2022-07-21T04:42:22;21.50;99.90
13806;DHT22;6974;53.606;9.872;2022-07-21T04:44:48;21.60;99.90
13806;DHT22;6974;53.606;9.872;2022-07-21T04:47:17;21.60;99.90
13806;DHT22;6974;53.606;9.872;2022-07-21T04:49:44;21.70;99.90
13806;DHT22;6974;53.606;9.872;2022-07-21T04:52:11;21.70;99.90
13806;DHT22;6974;53.606;9.872;2022-07-21T04:54:38;21.70;99.90
13806;DHT22;6974;53.606;9.872;2022-07-21T04:57:04;21.70;99.90
13806;DHT22;6974;53.606;9.872;2022-07-21T04:59:32;21.80;99.90
13806;DHT22;6974;53.606;9.872;2022-07-21T05:01:59;21.80;99.90
13806;DHT22;6974;53.606;9.872;2022-07-21T05:04:27;21.80;99.90
13806;DHT22;6974;53.606;9.872;2022-07-21T05:06:54;21.90;99.90
13806;DHT22;6974;53.606;9.872;2022-07-21T05:09:21;21.80;99.90
13806;DHT22;6974;53.606;9.872;2022-07-21T05:11:48;21.70;99.90
13806;DHT22;6974;53.606;9.872;2022-07-21T05:14:14;21.70;99.90
13806;DHT22;6974;53.606;9.872;2022-07-21T05:16:41;21.70;99.90
13806;DHT22;6974;53.606;9.872;2022-07-21T05:19:08;21.80;99.90
13806;DHT22;6974;53.606;9.872;2022-07-21T05:21:36;21.70;99.90
13806;DHT22;6974;53.606;9.872;2022-07-21T05:24:03;21.80;99.90
13806;DHT22;6974;53.606;9.872;2022-07-21T05:26:31;21.80;99.90
13806;DHT22;6974;53.606;9.872;2022-07-21T05:28:57;21.80;99.90
13806;DHT22;6974;53.606;9.872;2022-07-21T05:31:24;21.80;99.90
13806;DHT22;6974;53.606;9.872;2022-07-21T05:33:51;21.80;99.90
13806;DHT22;6974;53.606;9.872;2022-07-21T05:36:18;21.80;99.90
13806;DHT22;6974;53.606;9.872;2022-07-21T05:38:46;21.80;99.90
13806;DHT22;6974;53.606;9.872;2022-07-21T05:41:13;21.80;99.90
13806;DHT22;6974;53.606;9.872;2022-07-21T05:43:40;21.90;99.90
13806;DHT22;6974;53.606;9.872;2022-07-21T05:46:07;21.90;99.90
13806;DHT22;6974;53.606;9.872;2022-07-21T05:48:34;21.90;99.90
13806;DHT22;6974;53.606;9.872;2022-07-21T05:51:00;21.80;99.90
13806;DHT22;6974;53.606;9.872;2022-07-21T05:53:27;21.80;99.90
13806;DHT22;6974;53.606;9.872;2022-07-21T05:55:55;21.80;99.90
13806;DHT22;6974;53.606;9.872;2022-07-21T05:58:22;21.90;99.90
13806;DHT22;6974;53.606;9.872;2022-07-21T06:00:50;21.90;99.90
13806;DHT22;6974;53.606;9.872;2022-07-21T06:03:31;22.00;99.90
13806;DHT22;6974;53.606;9.872;2022-07-21T06:05:58;21.90;99.90
13806;DHT22;6974;53.606;9.872;2022-07-21T06:08:24;21.90;99.90
13806;DHT22;6974;53.606;9.872;2022-07-21T06:10:51;22.00;99.90
13806;DHT22;6974;53.606;9.872;2022-07-21T06:13:19;22.00;99.90
13806;DHT22;6974;53.606;9.872;2022-07-21T06:15:46;22.00;99.90
13806;DHT22;6974;53.606;9.872;2022-07-21T06:18:13;22.00;99.90
13806;DHT22;6974;53.606;9.872;2022-07-21T06:20:40;22.10;99.90
13806;DHT22;6974;53.606;9.872;2022-07-21T06:23:07;22.10;99.90
13806;DHT22;6974;53.606;9.872;2022-07-21T06:25:34;22.00;99.90
13806;DHT22;6974;53.606;9.872;2022-07-21T06:28:01;22.00;99.90
13806;DHT22;6974;53.606;9.872;2022-07-21T06:30:29;22.00;99.90
13806;DHT22;6974;53.606;9.872;2022-07-21T06:32:56;22.00;99.90
13806;DHT22;6974;53.606;9.872;2022-07-21T06:35:23;22.00;99.90
13806;DHT22;6974;53.606;9.872;2022-07-21T06:37:50;22.00;99.90
13806;DHT22;6974;53.606;9.872;2022-07-21T06:40:17;22.00;99.90
13806;DHT22;6974;53.606;9.872;2022-07-21T06:42:44;22.00;99.90
13806;DHT22;6974;53.606;9.872;2022-07-21T06:45:11;22.00;99.90
13806;DHT22;6974;53.606;9.872;2022-07-21T06:47:39;21.90;99.90
13806;DHT22;6974;53.606;9.872;2022-07-21T06:50:07;21.80;99.90
13806;DHT22;6974;53.606;9.872;2022-07-21T06:52:35;21.80;99.90
13806;DHT22;6974;53.606;9.872;2022-07-21T06:55:03;21.80;99.90
13806;DHT22;6974;53.606;9.872;2022-07-21T06:57:30;21.80;99.90
13806;DHT22;6974;53.606;9.872;2022-07-21T06:59:56;21.90;99.90
13806;DHT22;6974;53.606;9.872;2022-07-21T07:02:23;21.90;99.90
13806;DHT22;6974;53.606;9.872;2022-07-21T07:04:51;21.90;99.90
13806;DHT22;6974;53.606;9.872;2022-07-21T07:07:18;21.80;99.90
13806;DHT22;6974;53.606;9.872;2022-07-21T07:09:45;21.80;99.90
13806;DHT22;6974;53.606;9.872;2022-07-21T07:12:12;21.80;99.90
13806;DHT22;6974;53.606;9.872;2022-07-21T07:14:38;21.80;99.90
13806;DHT22;6974;53.606;9.872;2022-07-21T07:17:05;21.80;99.90
13806;DHT22;6974;53.606;9.872;2022-07-21T07:19:32;21.70;99.90
13806;DHT22;6974;53.606;9.872;2022-07-21T07:22:00;21.70;99.90
13806;DHT22;6974;53.606;9.872;2022-07-21T07:24:27;21.70;99.90
13806;DHT22;6974;53.606;9.872;2022-07-21T07:26:54;21.70;99.90
13806;DHT22;6974;53.606;9.872;2022-07-21T07:29:22;21.80;99.90
13806;DHT22;6974;53.606;9.872;2022-07-21T07:31:49;21.80;99.90
13806;DHT22;6974;53.606;9.872;2022-07-21T07:34:15;21.80;99.90
13806;DHT22;6974;53.606;9.872;2022-07-21T07:36:42;21.80;99.90
13806;DHT22;6974;53.606;9.872;2022-07-21T07:39:11;21.90;99.90
13806;DHT22;6974;53.606;9.872;2022-07-21T07:41:38;21.90;99.90
13806;DHT22;6974;53.606;9.872;2022-07-21T07:44:05;21.90;99.90
13806;DHT22;6974;53.606;9.872;2022-07-21T07:46:31;21.90;99.90
13806;DHT22;6974;53.606;9.872;2022-07-21T07:48:58;21.90;99.90
13806;DHT22;6974;53.606;9.872;2022-07-21T07:51:26;21.90;99.90
13806;DHT22;6974;53.606;9.872;2022-07-21T07:53:53;22.00;99.90
13806;DHT22;6974;53.606;9.872;2022-07-21T07:56:21;21.90;99.90
13806;DHT22;6974;53.606;9.872;2022-07-21T07:58:48;22.00;99.90
13806;DHT22;6974;53.606;9.872;2022-07-21T08:01:14;22.00;99.90
13806;DHT22;6974;53.606;9.872;2022-07-21T08:03:42;22.00;99.90
13806;DHT22;6974;53.606;9.872;2022-07-21T08:06:08;22.00;99.90
13806;DHT22;6974;53.606;9.872;2022-07-21T08:08:35;22.10;99.90
13806;DHT22;6974;53.606;9.872;2022-07-21T08:11:02;22.10;99.90
13806;DHT22;6974;53.606;9.872;2022-07-21T08:13:31;22.10;99.90
13806;DHT22;6974;53.606;9.872;2022-07-21T08:15:58;22.20;99.90
13806;DHT22;6974;53.606;9.872;2022-07-21T08:18:25;22.20;99.90
13806;DHT22;6974;53.606;9.872;2022-07-21T08:20:52;22.20;99.90
13806;DHT22;6974;53.606;9.872;2022-07-21T08:23:19;22.20;99.90
13806;DHT22;6974;53.606;9.872;2022-07-21T08:25:45;22.30;99.90
13806;DHT22;6974;53.606;9.872;2022-07-21T08:28:12;22.20;99.90
13806;DHT22;6974;53.606;9.872;2022-07-21T08:30:41;22.30;99.90
13806;DHT22;6974;53.606;9.872;2022-07-21T08:33:08;22.30;99.90
13806;DHT22;6974;53.606;9.872;2022-07-21T08:35:38;22.40;99.90
13806;DHT22;6974;53.606;9.872;2022-07-21T08:38:07;22.50;99.90
13806;DHT22;6974;53.606;9.872;2022-07-21T08:40:36;22.50;99.90
13806;DHT22;6974;53.606;9.872;2022-07-21T08:43:04;22.50;99.90
13806;DHT22;6974;53.606;9.872;2022-07-21T08:45:32;22.60;99.90
13806;DHT22;6974;53.606;9.872;2022-07-21T08:48:00;22.60;99.90
13806;DHT22;6974;53.606;9.872;2022-07-21T08:50:29;22.70;99.90
13806;DHT22;6974;53.606;9.872;2022-07-21T08:52:56;22.70;99.90
13806;DHT22;6974;53.606;9.872;2022-07-21T08:55:23;22.70;99.90
13806;DHT22;6974;53.606;9.872;2022-07-21T08:57:51;22.70;99.90
13806;DHT22;6974;53.606;9.872;2022-07-21T09:00:17;22.70;99.90
13806;DHT22;6974;53.606;9.872;2022-07-21T09:02:44;22.70;99.90
13806;DHT22;6974;53.606;9.872;2022-07-21T09:05:12;22.70;99.90
13806;DHT22;6974;53.606;9.872;2022-07-21T09:07:49;22.60;99.90
13806;DHT22;6974;53.606;9.872;2022-07-21T09:10:21;22.60;99.90
13806;DHT22;6974;53.606;9.872;2022-07-21T09:12:49;22.70;99.90
13806;DHT22;6974;53.606;9.872;2022-07-21T09:15:18;22.70;99.90
13806;DHT22;6974;53.606;9.872;2022-07-21T09:17:45;22.70;99.90
13806;DHT22;6974;53.606;9.872;2022-07-21T09:20:23;22.90;99.90
13806;DHT22;6974;53.606;9.872;2022-07-21T09:23:08;23.00;99.90
13806;DHT22;6974;53.606;9.872;2022-07-21T09:25:38;23.20;99.90
13806;DHT22;6974;53.606;9.872;2022-07-21T09:28:13;23.40;99.90
13806;DHT22;6974;53.606;9.872;2022-07-21T09:30:57;23.50;99.90
13806;DHT22;6974;53.606;9.872;2022-07-21T09:33:27;23.50;99.90
13806;DHT22;6974;53.606;9.872;2022-07-21T09:36:04;23.50;99.90
13806;DHT22;6974;53.606;9.872;2022-07-21T09:38:33;23.30;99.90
13806;DHT22;6974;53.606;9.872;2022-07-21T09:41:05;23.30;99.90
13806;DHT22;6974;53.606;9.872;2022-07-21T09:43:38;23.20;99.90
13806;DHT22;6974;53.606;9.872;2022-07-21T09:46:10;23.20;99.90
13806;DHT22;6974;53.606;9.872;2022-07-21T09:48:39;23.20;99.90
13806;DHT22;6974;53.606;9.872;2022-07-21T09:51:25;23.30;99.90
13806;DHT22;6974;53.606;9.872;2022-07-21T09:53:54;23.30;99.90
13806;DHT22;6974;53.606;9.872;2022-07-21T09:56:22;23.40;99.90
13806;DHT22;6974;53.606;9.872;2022-07-21T09:58:51;23.60;99.90
13806;DHT22;6974;53.606;9.872;2022-07-21T10:01:18;23.90;99.90
13806;DHT22;6974;53.606;9.872;2022-07-21T10:03:46;24.00;99.90
13806;DHT22;6974;53.606;9.872;2022-07-21T10:06:16;24.10;99.90
13806;DHT22;6974;53.606;9.872;2022-07-21T10:08:44;24.10;99.90
13806;DHT22;6974;53.606;9.872;2022-07-21T10:11:12;24.10;99.90
13806;DHT22;6974;53.606;9.872;2022-07-21T10:13:39;24.10;99.90
13806;DHT22;6974;53.606;9.872;2022-07-21T10:16:08;24.10;99.90
13806;DHT22;6974;53.606;9.872;2022-07-21T10:18:39;24.10;99.90
13806;DHT22;6974;53.606;9.872;2022-07-21T10:21:18;24.20;99.90
13806;DHT22;6974;53.606;9.872;2022-07-21T10:23:52;24.20;99.90
13806;DHT22;6974;53.606;9.872;2022-07-21T10:26:20;24.40;99.90
13806;DHT22;6974;53.606;9.872;2022-07-21T10:28:47;24.50;99.90
13806;DHT22;6974;53.606;9.872;2022-07-21T10:31:16;24.50;99.90
13806;DHT22;6974;53.606;9.872;2022-07-21T10:34:01;24.60;99.90
13806;DHT22;6974;53.606;9.872;2022-07-21T10:36:44;24.80;99.90
13806;DHT22;6974;53.606;9.872;2022-07-21T10:39:25;24.90;99.90
13806;DHT22;6974;53.606;9.872;2022-07-21T10:41:54;24.70;99.90
13806;DHT22;6974;53.606;9.872;2022-07-21T10:44:44;24.70;99.90
13806;DHT22;6974;53.606;9.872;2022-07-21T10:47:12;24.80;99.90
13806;DHT22;6974;53.606;9.872;2022-07-21T10:49:43;24.80;99.90
13806;DHT22;6974;53.606;9.872;2022-07-21T10:55:18;24.70;99.90
13806;DHT22;6974;53.606;9.872;2022-07-21T10:58:10;24.60;99.90
13806;DHT22;6974;53.606;9.872;2022-07-21T11:00:37;24.60;99.90
13806;DHT22;6974;53.606;9.872;2022-07-21T11:03:16;24.60;99.90
13806;DHT22;6974;53.606;9.872;2022-07-21T11:06:18;24.60;99.90
13806;DHT22;6974;53.606;9.872;2022-07-21T11:08:47;24.60;99.90
13806;DHT22;6974;53.606;9.872;2022-07-21T11:11:17;24.50;99.90
13806;DHT22;6974;53.606;9.872;2022-07-21T11:13:59;24.60;99.90
13806;DHT22;6974;53.606;9.872;2022-07-21T11:19:40;24.70;99.90
13806;DHT22;6974;53.606;9.872;2022-07-21T11:22:11;24.90;99.90
13806;DHT22;6974;53.606;9.872;2022-07-21T11:24:38;25.00;99.90
13806;DHT22;6974;53.606;9.872;2022-07-21T11:27:09;25.20;99.90
13806;DHT22;6974;53.606;9.872;2022-07-21T11:29:38;25.50;99.90
13806;DHT22;6974;53.606;9.872;2022-07-21T11:32:05;25.80;99.90
13806;DHT22;6974;53.606;9.872;2022-07-21T11:34:40;26.20;99.90
13806;DHT22;6974;53.606;9.872;2022-07-21T11:37:08;26.50;99.90
13806;DHT22;6974;53.606;9.872;2022-07-21T11:39:35;26.80;99.90
13806;DHT22;6974;53.606;9.872;2022-07-21T11:42:04;27.00;99.90
13806;DHT22;6974;53.606;9.872;2022-07-21T11:44:32;27.20;99.90
13806;DHT22;6974;53.606;9.872;2022-07-21T11:47:00;27.20;99.90
13806;DHT22;6974;53.606;9.872;2022-07-21T11:49:28;27.10;99.90
13806;DHT22;6974;53.606;9.872;2022-07-21T11:51:58;26.90;99.90
13806;DHT22;6974;53.606;9.872;2022-07-21T11:54:33;26.80;99.90
13806;DHT22;6974;53.606;9.872;2022-07-21T11:57:02;26.60;99.90
13806;DHT22;6974;53.606;9.872;2022-07-21T11:59:32;26.50;99.90
13806;DHT22;6974;53.606;9.872;2022-07-21T12:02:02;26.50;99.90
13806;DHT22;6974;53.606;9.872;2022-07-21T12:04:40;26.40;99.90
13806;DHT22;6974;53.606;9.872;2022-07-21T12:07:16;26.30;99.90
13806;DHT22;6974;53.606;9.872;2022-07-21T12:09:45;26.30;99.90
13806;DHT22;6974;53.606;9.872;2022-07-21T12:12:13;26.40;99.90
13806;DHT22;6974;53.606;9.872;2022-07-21T12:14:46;26.70;99.90
13806;DHT22;6974;53.606;9.872;2022-07-21T12:17:16;26.80;99.90
13806;DHT22;6974;53.606;9.872;2022-07-21T12:19:43;26.90;99.90
13806;DHT22;6974;53.606;9.872;2022-07-21T12:22:10;26.80;99.90
13806;DHT22;6974;53.606;9.872;2022-07-21T12:24:51;26.80;99.90
13806;DHT22;6974;53.606;9.872;2022-07-21T12:27:18;26.70;99.90
13806;DHT22;6974;53.606;9.872;2022-07-21T12:29:47;26.70;99.90
13806;DHT22;6974;53.606;9.872;2022-07-21T12:32:20;26.80;99.90
13806;DHT22;6974;53.606;9.872;2022-07-21T12:35:02;26.80;99.90
13806;DHT22;6974;53.606;9.872;2022-07-21T12:37:50;26.80;99.90
13806;DHT22;6974;53.606;9.872;2022-07-21T12:40:18;27.10;99.90
13806;DHT22;6974;53.606;9.872;2022-07-21T12:42:46;27.20;99.90
13806;DHT22;6974;53.606;9.872;2022-07-21T12:45:17;27.40;99.90
13806;DHT22;6974;53.606;9.872;2022-07-21T12:48:05;27.50;99.90
13806;DHT22;6974;53.606;9.872;2022-07-21T12:50:32;27.40;99.90
13806;DHT22;6974;53.606;9.872;2022-07-21T12:52:59;27.10;99.90
13806;DHT22;6974;53.606;9.872;2022-07-21T12:55:26;26.90;99.90
13806;DHT22;6974;53.606;9.872;2022-07-21T12:57:52;26.70;99.90
13806;DHT22;6974;53.606;9.872;2022-07-21T13:00:21;26.60;99.90
13806;DHT22;6974;53.606;9.872;2022-07-21T13:02:48;26.50;99.90
13806;DHT22;6974;53.606;9.872;2022-07-21T13:05:16;26.50;99.90
13806;DHT22;6974;53.606;9.872;2022-07-21T13:07:43;26.50;99.90
13806;DHT22;6974;53.606;9.872;2022-07-21T13:10:10;26.60;99.90
13806;DHT22;6974;53.606;9.872;2022-07-21T13:12:37;26.60;99.90
13806;DHT22;6974;53.606;9.872;2022-07-21T13:15:05;26.70;99.90
13806;DHT22;6974;53.606;9.872;2022-07-21T13:17:34;26.70;99.90
13806;DHT22;6974;53.606;9.872;2022-07-21T13:20:01;26.70;99.90
13806;DHT22;6974;53.606;9.872;2022-07-21T13:22:28;26.60;99.90
13806;DHT22;6974;53.606;9.872;2022-07-21T13:24:55;26.60;99.90
13806;DHT22;6974;53.606;9.872;2022-07-21T13:27:22;26.60;99.90
13806;DHT22;6974;53.606;9.872;2022-07-21T13:29:49;26.50;99.90
13806;DHT22;6974;53.606;9.872;2022-07-21T13:32:16;26.50;99.90
13806;DHT22;6974;53.606;9.872;2022-07-21T13:34:44;26.50;99.90
13806;DHT22;6974;53.606;9.872;2022-07-21T13:37:11;26.60;99.90
13806;DHT22;6974;53.606;9.872;2022-07-21T13:39:38;26.60;99.90
13806;DHT22;6974;53.606;9.872;2022-07-21T13:42:05;26.70;99.90
13806;DHT22;6974;53.606;9.872;2022-07-21T13:44:32;26.60;99.90
13806;DHT22;6974;53.606;9.872;2022-07-21T13:46:59;26.60;99.90
13806;DHT22;6974;53.606;9.872;2022-07-21T13:49:26;26.50;99.90
13806;DHT22;6974;53.606;9.872;2022-07-21T13:51:54;26.60;99.90
13806;DHT22;6974;53.606;9.872;2022-07-21T13:54:21;26.50;99.90
13806;DHT22;6974;53.606;9.872;2022-07-21T13:56:48;26.40;99.90
13806;DHT22;6974;53.606;9.872;2022-07-21T13:59:15;26.30;99.90
13806;DHT22;6974;53.606;9.872;2022-07-21T14:01:42;26.20;99.90
13806;DHT22;6974;53.606;9.872;2022-07-21T14:04:09;26.20;99.90
13806;DHT22;6974;53.606;9.872;2022-07-21T14:06:36;26.10;99.90
13806;DHT22;6974;53.606;9.872;2022-07-21T14:09:04;26.20;99.90
13806;DHT22;6974;53.606;9.872;2022-07-21T14:11:31;26.30;99.90
13806;DHT22;6974;53.606;9.872;2022-07-21T14:13:58;26.50;99.90
13806;DHT22;6974;53.606;9.872;2022-07-21T14:16:25;26.60;99.90
13806;DHT22;6974;53.606;9.872;2022-07-21T14:18:52;26.70;99.90
13806;DHT22;6974;53.606;9.872;2022-07-21T14:21:19;26.80;99.90
13806;DHT22;6974;53.606;9.872;2022-07-21T14:23:46;26.80;99.90
13806;DHT22;6974;53.606;9.872;2022-07-21T14:26:14;26.80;99.90
13806;DHT22;6974;53.606;9.872;2022-07-21T14:28:41;26.90;99.90
13806;DHT22;6974;53.606;9.872;2022-07-21T14:31:07;26.80;99.90
13806;DHT22;6974;53.606;9.872;2022-07-21T14:33:36;26.80;99.90
13806;DHT22;6974;53.606;9.872;2022-07-21T14:36:03;26.70;99.90
13806;DHT22;6974;53.606;9.872;2022-07-21T14:38:30;26.60;99.90
13806;DHT22;6974;53.606;9.872;2022-07-21T14:40:56;26.40;99.90
13806;DHT22;6974;53.606;9.872;2022-07-21T14:43:25;26.30;99.90
13806;DHT22;6974;53.606;9.872;2022-07-21T14:45:51;26.20;99.90
13806;DHT22;6974;53.606;9.872;2022-07-21T14:48:18;26.10;99.90
13806;DHT22;6974;53.606;9.872;2022-07-21T14:50:45;26.10;99.90
13806;DHT22;6974;53.606;9.872;2022-07-21T14:53:12;26.10;99.90
13806;DHT22;6974;53.606;9.872;2022-07-21T14:55:39;26.00;99.90
13806;DHT22;6974;53.606;9.872;2022-07-21T14:58:05;26.00;99.90
13806;DHT22;6974;53.606;9.872;2022-07-21T15:00:33;25.90;99.90
13806;DHT22;6974;53.606;9.872;2022-07-21T15:03:00;25.80;99.90
13806;DHT22;6974;53.606;9.872;2022-07-21T15:05:27;25.70;99.90
13806;DHT22;6974;53.606;9.872;2022-07-21T15:07:54;25.60;99.90
13806;DHT22;6974;53.606;9.872;2022-07-21T15:10:21;25.50;99.90
13806;DHT22;6974;53.606;9.872;2022-07-21T15:12:48;25.50;99.90
13806;DHT22;6974;53.606;9.872;2022-07-21T15:15:15;25.50;99.90
13806;DHT22;6974;53.606;9.872;2022-07-21T15:17:43;25.50;99.90
13806;DHT22;6974;53.606;9.872;2022-07-21T15:20:11;25.70;99.90
13806;DHT22;6974;53.606;9.872;2022-07-21T15:22:38;25.70;99.90
13806;DHT22;6974;53.606;9.872;2022-07-21T15:25:07;25.60;99.90
13806;DHT22;6974;53.606;9.872;2022-07-21T15:27:36;25.60;99.90
13806;DHT22;6974;53.606;9.872;2022-07-21T15:30:04;25.50;99.90
13806;DHT22;6974;53.606;9.872;2022-07-21T15:32:31;25.40;99.90
13806;DHT22;6974;53.606;9.872;2022-07-21T15:35:00;25.40;99.90
13806;DHT22;6974;53.606;9.872;2022-07-21T15:37:27;25.40;99.90
13806;DHT22;6974;53.606;9.872;2022-07-21T15:39:54;25.30;99.90
13806;DHT22;6974;53.606;9.872;2022-07-21T15:42:21;25.20;99.90
13806;DHT22;6974;53.606;9.872;2022-07-21T15:44:49;25.20;99.90
13806;DHT22;6974;53.606;9.872;2022-07-21T15:47:16;25.10;99.90
13806;DHT22;6974;53.606;9.872;2022-07-21T15:49:43;25.00;99.90
13806;DHT22;6974;53.606;9.872;2022-07-21T15:52:11;25.00;99.90
13806;DHT22;6974;53.606;9.872;2022-07-21T15:54:38;24.90;99.90
13806;DHT22;6974;53.606;9.872;2022-07-21T15:57:05;24.90;99.90
13806;DHT22;6974;53.606;9.872;2022-07-21T15:59:32;24.70;99.90